createdAt,value
2018-07-03T00:01:59.946Z,75.10
2018-07-03T00:04:28.148Z,75.20
2018-07-03T00:06:56.432Z,75.60
2018-07-03T00:09:24.635Z,75.90
2018-07-03T00:11:53.435Z,76.00
2018-07-03T00:14:21.698Z,76.50
2018-07-03T00:16:55.354Z,76.80
2018-07-03T00:19:23.639Z,76.80
2018-07-03T00:21:52.147Z,76.80
2018-07-03T00:24:20.435Z,77.00
2018-07-03T00:26:48.711Z,77.60
2018-07-03T00:29:16.935Z,77.60
2018-07-03T00:31:45.221Z,76.80
2018-07-03T00:34:14.232Z,77.00
2018-07-03T00:36:42.491Z,76.70
2018-07-03T00:39:10.671Z,76.80
2018-07-03T00:41:38.876Z,76.70
2018-07-03T00:44:07.098Z,76.40
2018-07-03T00:46:35.307Z,76.20
2018-07-03T00:49:03.656Z,75.70
2018-07-03T00:51:31.891Z,75.90
2018-07-03T00:54:02.851Z,75.90
2018-07-03T00:56:31.064Z,76.40
2018-07-03T00:58:59.327Z,76.20
2018-07-03T01:01:27.595Z,77.00
2018-07-03T01:03:55.875Z,77.00
2018-07-03T01:06:24.150Z,76.50
2018-07-03T01:08:52.368Z,75.80
2018-07-03T01:11:20.895Z,76.30
2018-07-03T01:13:49.123Z,75.70
2018-07-03T01:16:18.096Z,75.70
2018-07-03T01:18:46.391Z,76.10
2018-07-03T01:21:14.647Z,76.60
2018-07-03T01:23:42.877Z,77.10
2018-07-03T01:26:11.107Z,77.10
2018-07-03T01:28:39.371Z,77.20
2018-07-03T01:31:07.662Z,77.30
2018-07-03T01:33:35.898Z,77.30
2018-07-03T01:36:04.176Z,77.60
2018-07-03T01:38:32.410Z,77.70
2018-07-03T01:41:00.633Z,77.70
2018-07-03T01:43:28.875Z,77.20
2018-07-03T01:45:57.093Z,77.10
2018-07-03T01:48:25.777Z,76.90
2018-07-03T01:50:54.338Z,77.10
2018-07-03T01:53:22.647Z,77.80
2018-07-03T01:55:50.893Z,77.50
2018-07-03T01:58:19.373Z,77.40
2018-07-03T02:00:47.634Z,77.70
2018-07-03T02:03:16.362Z,77.70
2018-07-03T02:05:44.604Z,77.80
2018-07-03T02:08:12.823Z,77.80
2018-07-03T02:10:41.109Z,77.80
2018-07-03T02:13:09.352Z,77.60
2018-07-03T02:15:37.579Z,77.60
2018-07-03T02:18:06.087Z,77.80
2018-07-03T02:20:34.339Z,77.90
2018-07-03T02:23:03.012Z,78.30
2018-07-03T02:25:31.252Z,78.30
2018-07-03T02:27:59.731Z,78.40
2018-07-03T02:30:28.369Z,78.60
2018-07-03T02:32:56.606Z,78.10
2018-07-03T02:35:25.023Z,77.90
2018-07-03T02:37:53.245Z,78.10
2018-07-03T02:40:21.480Z,77.80
2018-07-03T02:42:49.898Z,78.00
2018-07-03T02:45:18.213Z,78.10
2018-07-03T02:47:46.435Z,78.50
2018-07-03T02:50:14.991Z,78.70
2018-07-03T02:52:43.278Z,78.90
2018-07-03T02:55:11.503Z,79.80
2018-07-03T02:57:39.759Z,79.80
2018-07-03T03:00:08.094Z,79.70
2018-07-03T03:05:19.435Z,78.90
2018-07-03T03:07:47.718Z,78.80
2018-07-03T03:10:16.296Z,78.80
2018-07-03T03:12:44.501Z,79.00
2018-07-03T03:15:12.815Z,79.30
2018-07-03T03:17:41.126Z,80.30
2018-07-03T03:20:09.299Z,80.30
2018-07-03T03:22:37.584Z,80.10
2018-07-03T03:25:05.855Z,80.40
2018-07-03T03:27:34.051Z,80.50
2018-07-03T03:30:02.275Z,80.90
2018-07-03T03:32:31.528Z,81.00
2018-07-03T03:34:59.743Z,81.20
2018-07-03T03:37:27.953Z,80.90
2018-07-03T03:39:56.188Z,81.00
2018-07-03T03:42:25.354Z,80.90
2018-07-03T03:44:53.566Z,80.70
2018-07-03T03:47:21.809Z,81.10
2018-07-03T03:49:50.115Z,81.20
2018-07-03T03:52:18.344Z,81.70
2018-07-03T03:54:46.571Z,82.30
2018-07-03T03:57:14.780Z,83.00
2018-07-03T03:59:43.060Z,83.40
2018-07-03T04:02:11.344Z,82.90
2018-07-03T04:04:39.590Z,83.00
2018-07-03T04:07:08.068Z,82.90
2018-07-03T04:09:36.527Z,83.10
2018-07-03T04:12:04.850Z,83.40
2018-07-03T04:14:33.103Z,82.80
2018-07-03T04:17:01.319Z,82.60
2018-07-03T04:19:32.222Z,82.50
2018-07-03T04:22:01.054Z,82.90
2018-07-03T04:24:29.346Z,82.00
2018-07-03T04:26:57.715Z,81.70
2018-07-03T04:29:26.195Z,81.20
2018-07-03T04:31:54.467Z,81.20
2018-07-03T04:34:22.675Z,80.90
2018-07-03T04:36:50.907Z,80.80
2018-07-03T04:39:19.159Z,80.80
2018-07-03T04:41:47.424Z,80.40
2018-07-03T04:44:15.647Z,80.20
2018-07-03T04:46:43.899Z,79.30
2018-07-03T04:49:12.125Z,76.30
2018-07-03T04:51:40.329Z,73.20
2018-07-03T04:54:08.590Z,70.40
2018-07-03T04:56:37.200Z,65.80
2018-07-03T04:59:06.036Z,63.70
2018-07-03T05:01:34.300Z,61.70
2018-07-03T05:04:03.107Z,61.40
2018-07-03T05:06:31.692Z,60.30
2018-07-03T05:08:59.962Z,59.70
2018-07-03T05:11:28.212Z,60.40
2018-07-03T05:13:57.131Z,58.90
2018-07-03T05:16:25.816Z,58.60
2018-07-03T05:18:54.040Z,58.40
2018-07-03T05:21:23.391Z,58.60
2018-07-03T05:23:51.647Z,58.40
2018-07-03T05:26:19.897Z,57.90
2018-07-03T05:28:48.130Z,58.50
2018-07-03T05:31:16.648Z,56.30
2018-07-03T05:33:44.870Z,56.10
2018-07-03T05:36:13.586Z,55.60
2018-07-03T05:38:42.150Z,55.70
2018-07-03T05:41:10.399Z,55.30
2018-07-03T05:43:38.642Z,54.60
2018-07-03T05:46:06.879Z,53.50
2018-07-03T05:48:35.091Z,53.40
2018-07-03T05:51:04.062Z,52.80
2018-07-03T05:53:32.551Z,52.50
2018-07-03T05:56:00.754Z,52.30
2018-07-03T05:58:28.991Z,53.20
2018-07-03T06:00:57.252Z,53.00
2018-07-03T06:03:25.551Z,53.30
2018-07-03T06:05:53.782Z,51.90
2018-07-03T06:08:22.011Z,52.10
2018-07-03T06:10:50.239Z,51.70
2018-07-03T06:13:18.471Z,53.30
2018-07-03T06:15:46.726Z,52.20
2018-07-03T06:18:14.939Z,52.20
2018-07-03T06:20:43.162Z,51.50
2018-07-03T06:23:12.233Z,51.90
2018-07-03T06:25:40.539Z,51.80
2018-07-03T06:28:08.827Z,50.80
2018-07-03T06:30:37.094Z,51.10
2018-07-03T06:33:05.420Z,51.20
2018-07-03T06:35:33.624Z,50.80
2018-07-03T06:38:01.908Z,51.70
2018-07-03T06:40:30.167Z,51.60
2018-07-03T06:42:58.408Z,52.00
2018-07-03T06:45:26.679Z,51.40
2018-07-03T06:47:55.877Z,51.30
2018-07-03T06:50:24.179Z,51.40
2018-07-03T06:52:52.472Z,51.70
2018-07-03T06:55:20.728Z,50.40
2018-07-03T06:57:48.990Z,49.80
2018-07-03T07:00:17.224Z,49.80
2018-07-03T07:02:45.461Z,49.10
2018-07-03T07:05:13.759Z,49.60
2018-07-03T07:07:42.315Z,49.80
2018-07-03T07:10:10.547Z,50.90
2018-07-03T07:12:38.815Z,50.20
2018-07-03T07:15:07.813Z,49.70
2018-07-03T07:17:36.244Z,49.30
2018-07-03T07:20:04.782Z,49.10
2018-07-03T07:22:33.036Z,48.50
2018-07-03T07:25:01.300Z,49.30
2018-07-03T07:27:29.531Z,49.50
2018-07-03T07:29:57.747Z,50.80
2018-07-03T07:32:26.248Z,49.00
2018-07-03T07:34:54.527Z,49.60
2018-07-03T07:37:22.795Z,49.60
2018-07-03T07:39:51.049Z,49.20
2018-07-03T07:42:19.288Z,49.30
2018-07-03T07:44:47.523Z,50.00
2018-07-03T07:47:15.787Z,49.70
2018-07-03T07:49:44.118Z,50.60
2018-07-03T07:52:12.357Z,50.70
2018-07-03T07:54:41.059Z,50.60
2018-07-03T07:59:37.439Z,50.20
2018-07-03T08:02:06.079Z,50.30
2018-07-03T08:04:34.381Z,50.00
2018-07-03T08:07:02.620Z,50.00
2018-07-03T08:09:30.855Z,51.00
2018-07-03T08:11:59.403Z,48.80
2018-07-03T08:16:55.652Z,51.10
2018-07-03T08:19:23.926Z,48.30
2018-07-03T08:21:52.137Z,48.80
2018-07-03T08:24:20.385Z,48.40
2018-07-03T08:26:48.626Z,48.50
2018-07-03T08:29:16.855Z,50.20
2018-07-03T08:31:45.139Z,48.70
2018-07-03T08:34:13.321Z,48.60
2018-07-03T08:36:41.948Z,48.10
2018-07-03T08:39:11.563Z,47.90
2018-07-03T08:41:39.893Z,48.80
2018-07-03T08:44:08.133Z,51.70
2018-07-03T08:46:36.372Z,48.30
2018-07-03T08:49:06.333Z,48.30
2018-07-03T08:51:34.927Z,48.30
2018-07-03T08:54:03.212Z,48.30
2018-07-03T08:56:31.439Z,47.90
2018-07-03T08:58:59.954Z,47.30
2018-07-03T09:01:28.139Z,46.40
2018-07-03T09:03:58.140Z,47.10
2018-07-03T09:06:26.645Z,46.70
2018-07-03T09:08:54.903Z,46.50
2018-07-03T09:11:23.124Z,46.40
2018-07-03T09:13:51.666Z,47.80
2018-07-03T09:16:19.920Z,46.60
2018-07-03T09:18:48.412Z,46.90
2018-07-03T09:21:16.670Z,46.10
2018-07-03T09:23:44.947Z,45.70
2018-07-03T09:26:13.191Z,45.20
2018-07-03T09:28:42.144Z,45.40
2018-07-03T09:31:10.427Z,44.90
2018-07-03T09:33:38.688Z,45.80
2018-07-03T09:36:06.964Z,42.80
2018-07-03T09:38:35.233Z,43.50
2018-07-03T09:41:03.513Z,43.50
2018-07-03T09:43:31.739Z,43.90
2018-07-03T09:46:00.272Z,44.60
2018-07-03T09:48:28.483Z,41.80
2018-07-03T09:50:56.758Z,42.10
2018-07-03T09:53:25.025Z,44.50
2018-07-03T09:55:53.329Z,43.30
2018-07-03T09:58:21.589Z,40.20
2018-07-03T10:00:55.343Z,41.20
2018-07-03T10:03:24.319Z,40.90
2018-07-03T10:05:52.603Z,40.70
2018-07-03T10:08:20.835Z,41.00
2018-07-03T10:10:49.102Z,41.40
2018-07-03T10:13:17.335Z,42.10
2018-07-03T10:15:45.828Z,40.20
2018-07-03T10:18:14.091Z,40.70
2018-07-03T10:20:42.399Z,40.20
2018-07-03T10:23:10.576Z,37.40
2018-07-03T10:25:38.836Z,37.10
2018-07-03T10:28:07.087Z,37.30
2018-07-03T10:30:35.347Z,38.80
2018-07-03T10:33:03.643Z,36.60
2018-07-03T10:35:31.868Z,38.70
2018-07-03T10:38:03.947Z,39.00
2018-07-03T10:40:32.691Z,37.70
2018-07-03T10:43:00.972Z,36.70
2018-07-03T10:45:29.188Z,38.20
2018-07-03T10:47:57.433Z,37.60
2018-07-03T10:50:25.791Z,37.00
2018-07-03T10:52:54.061Z,39.10
2018-07-03T10:55:22.255Z,38.40
2018-07-03T10:57:50.458Z,38.50
2018-07-03T11:00:18.671Z,38.20
2018-07-03T11:02:46.999Z,38.70
2018-07-03T11:05:15.271Z,38.20
2018-07-03T11:07:43.555Z,38.40
2018-07-03T11:10:11.825Z,39.90
2018-07-03T11:12:40.071Z,37.70
2018-07-03T11:15:08.252Z,39.40
2018-07-03T11:17:36.466Z,37.50
2018-07-03T11:20:05.119Z,37.60
2018-07-03T11:22:33.317Z,38.60
2018-07-03T11:25:01.868Z,38.80
2018-07-03T11:27:30.082Z,41.10
2018-07-03T11:29:58.329Z,41.40
2018-07-03T11:32:26.587Z,39.90
2018-07-03T11:34:54.818Z,37.90
2018-07-03T11:37:23.032Z,38.50
2018-07-03T11:39:51.313Z,36.40
2018-07-03T11:42:19.799Z,36.40
2018-07-03T11:44:48.080Z,37.10
2018-07-03T11:47:16.887Z,38.00
2018-07-03T11:49:45.148Z,39.00
2018-07-03T11:52:13.339Z,38.90
2018-07-03T11:54:42.498Z,39.90
2018-07-03T11:57:11.136Z,39.70
2018-07-03T11:59:40.160Z,42.10
2018-07-03T12:02:08.788Z,39.10
2018-07-03T12:04:37.104Z,38.60
2018-07-03T12:07:05.403Z,38.00
2018-07-03T12:09:33.633Z,39.60
2018-07-03T12:12:01.926Z,39.10
2018-07-03T12:14:30.116Z,39.10
2018-07-03T12:16:58.356Z,39.90
2018-07-03T12:19:26.644Z,37.40
2018-07-03T12:47:39.880Z,38.90
2018-07-03T12:50:08.160Z,37.40
2018-07-03T12:52:36.392Z,37.20
2018-07-03T12:55:04.679Z,38.20
2018-07-03T12:57:32.931Z,35.90
2018-07-03T13:00:01.190Z,37.20
2018-07-03T13:02:29.481Z,35.60
2018-07-03T13:04:57.785Z,33.80
2018-07-03T13:07:26.064Z,35.20
2018-07-03T13:09:54.319Z,35.70
2018-07-03T13:12:22.584Z,34.90
2018-07-03T13:14:50.858Z,35.60
2018-07-03T13:17:19.108Z,35.20
2018-07-03T13:19:47.362Z,36.10
2018-07-03T13:24:43.565Z,35.90
2018-07-03T13:27:11.834Z,35.70
2018-07-03T13:29:40.109Z,36.50
2018-07-03T13:32:08.460Z,36.20
2018-07-03T13:34:36.700Z,36.30
2018-07-03T13:37:05.051Z,36.10
2018-07-03T13:39:33.331Z,34.90
2018-07-03T13:42:01.655Z,34.40
2018-07-03T13:44:30.473Z,34.20
2018-07-03T13:46:58.708Z,34.70
2018-07-03T13:49:26.920Z,35.20
2018-07-03T13:51:55.169Z,36.40
2018-07-03T13:54:23.383Z,35.50
2018-07-03T13:56:51.987Z,37.70
2018-07-03T13:59:20.234Z,35.40
2018-07-03T14:01:50.376Z,35.90
2018-07-03T14:04:18.702Z,34.90
2018-07-03T14:06:46.923Z,35.80
2018-07-03T14:09:15.327Z,34.00
2018-07-03T14:11:43.583Z,34.80
2018-07-03T14:14:11.777Z,33.90
2018-07-03T14:16:40.035Z,33.90
2018-07-03T14:19:08.307Z,34.20
2018-07-03T14:21:36.543Z,34.30
2018-07-03T14:24:04.820Z,33.60
2018-07-03T14:26:33.088Z,33.10
2018-07-03T14:29:01.324Z,34.00
2018-07-03T14:31:29.540Z,34.30
2018-07-03T14:33:57.775Z,33.80
2018-07-03T14:36:26.787Z,34.10
2018-07-03T14:38:55.427Z,34.60
2018-07-03T14:41:24.112Z,33.70
2018-07-03T14:43:52.322Z,33.30
2018-07-03T14:46:20.591Z,34.00
2018-07-03T14:48:48.851Z,34.80
2018-07-03T14:51:17.324Z,33.50
2018-07-03T14:53:45.532Z,33.80
2018-07-03T14:56:13.784Z,33.90
2018-07-03T14:58:42.004Z,32.70
2018-07-03T15:01:10.231Z,33.10
2018-07-03T15:03:38.804Z,33.60
2018-07-03T15:06:07.072Z,32.20
2018-07-03T15:08:35.318Z,32.40
2018-07-03T15:11:03.937Z,32.10
2018-07-03T15:13:32.171Z,31.30
2018-07-03T15:16:00.487Z,32.00
2018-07-03T15:18:34.059Z,31.60
2018-07-03T15:21:02.737Z,32.60
2018-07-03T15:23:31.951Z,31.60
2018-07-03T15:26:00.216Z,32.40
2018-07-03T15:28:28.448Z,30.00
2018-07-03T15:30:56.706Z,31.70
2018-07-03T15:33:24.916Z,30.90
2018-07-03T15:35:53.182Z,30.80
2018-07-03T15:38:21.398Z,30.20
2018-07-03T15:43:17.689Z,30.40
2018-07-03T15:45:45.955Z,30.00
2018-07-03T15:48:14.183Z,29.70
2018-07-03T15:50:42.378Z,29.90
2018-07-03T15:53:10.573Z,29.20
2018-07-03T15:55:38.819Z,29.50
2018-07-03T16:00:35.079Z,29.40
2018-07-03T16:03:14.615Z,29.00
2018-07-03T16:05:58.671Z,29.10
2018-07-03T16:08:42.763Z,29.60
2018-07-03T16:11:11.005Z,30.00
2018-07-03T16:13:39.232Z,30.00
2018-07-03T16:16:07.539Z,29.30
2018-07-03T16:18:35.806Z,29.90
2018-07-03T16:21:04.071Z,30.10
2018-07-03T16:23:32.342Z,29.80
2018-07-03T16:26:00.584Z,30.20
2018-07-03T16:28:28.844Z,30.00
2018-07-03T16:30:57.203Z,29.90
2018-07-03T16:33:25.811Z,30.90
2018-07-03T16:35:54.265Z,29.80
2018-07-03T16:38:22.491Z,29.90
2018-07-03T16:40:50.771Z,29.90
2018-07-03T16:43:19.008Z,29.90
2018-07-03T16:45:47.263Z,31.30
2018-07-03T16:48:15.547Z,29.50
2018-07-03T16:50:43.771Z,29.80
2018-07-03T16:53:12.138Z,31.50
2018-07-03T16:55:40.391Z,29.40
2018-07-03T16:58:08.599Z,29.60
2018-07-03T17:00:36.995Z,29.60
2018-07-03T17:03:05.239Z,31.00
2018-07-03T17:05:33.478Z,30.70
2018-07-03T17:08:01.770Z,32.40
2018-07-03T17:10:30.070Z,32.20
2018-07-03T17:12:58.317Z,31.60
2018-07-03T17:15:26.522Z,31.40
2018-07-03T17:17:55.298Z,32.00
2018-07-03T17:20:23.534Z,31.40
2018-07-03T17:22:51.774Z,30.70
2018-07-03T17:25:20.657Z,32.10
2018-07-03T17:27:48.831Z,32.10
2018-07-03T17:30:17.133Z,32.60
2018-07-03T17:32:45.606Z,33.00
2018-07-03T17:35:13.815Z,33.30
2018-07-03T17:37:42.029Z,33.80
2018-07-03T17:40:21.848Z,34.60
2018-07-03T17:43:01.643Z,35.50
2018-07-03T17:45:43.056Z,35.80
2018-07-03T17:48:12.613Z,34.50
2018-07-03T17:50:40.959Z,35.60
2018-07-03T17:53:09.235Z,36.50
2018-07-03T17:55:37.531Z,36.50
2018-07-03T17:58:06.491Z,39.10
2018-07-03T18:03:03.408Z,39.70
2018-07-03T18:05:32.104Z,39.50
2018-07-03T18:08:00.669Z,39.50
2018-07-03T18:10:28.992Z,40.60
2018-07-03T18:12:57.255Z,41.10
2018-07-03T18:15:25.704Z,41.90
2018-07-03T18:17:54.516Z,41.60
2018-07-03T18:20:23.098Z,41.30
2018-07-03T18:22:52.378Z,41.00
2018-07-03T18:25:21.418Z,41.40
2018-07-03T18:27:49.747Z,42.30
2018-07-03T18:30:18.817Z,46.70
2018-07-03T18:32:47.472Z,47.70
2018-07-03T18:35:15.724Z,47.80
2018-07-03T18:37:44.055Z,48.10
2018-07-03T18:40:12.319Z,48.60
2018-07-03T18:42:42.475Z,49.80
2018-07-03T18:45:10.847Z,52.00
2018-07-03T18:47:39.120Z,55.00
2018-07-03T18:50:07.344Z,55.70
2018-07-03T18:52:35.596Z,55.20
2018-07-03T18:55:04.285Z,54.20
2018-07-03T18:57:33.353Z,55.00
2018-07-03T19:00:01.591Z,55.90
2018-07-03T19:02:29.892Z,58.00
2018-07-03T19:04:58.275Z,58.10
2018-07-03T19:07:26.647Z,58.60
2018-07-03T19:09:54.876Z,58.30
2018-07-03T19:12:23.511Z,60.00
2018-07-03T19:14:51.778Z,59.20
2018-07-03T19:17:20.006Z,60.00
2018-07-03T19:19:48.219Z,62.60
2018-07-03T19:22:18.723Z,62.30
2018-07-03T19:24:47.856Z,60.10
2018-07-03T19:27:16.153Z,61.60
2018-07-03T19:29:44.368Z,64.70
2018-07-03T19:32:12.588Z,64.50
2018-07-03T19:34:40.870Z,64.70
2018-07-03T19:37:09.500Z,69.40
2018-07-03T19:39:37.787Z,67.90
2018-07-03T19:42:06.107Z,69.40
2018-07-03T19:44:34.323Z,68.90
2018-07-03T19:47:02.845Z,68.50
2018-07-03T19:54:28.284Z,65.60
2018-07-03T19:56:56.962Z,65.40
2018-07-03T19:59:25.239Z,66.90
2018-07-03T20:01:53.471Z,65.60
2018-07-03T20:04:21.786Z,67.30
2018-07-03T20:06:50.919Z,66.80
2018-07-03T20:09:19.186Z,66.70
2018-07-03T20:11:47.438Z,66.80
2018-07-03T20:14:15.693Z,68.00
2018-07-03T20:16:44.235Z,67.20
2018-07-03T20:19:14.640Z,67.40
2018-07-03T20:21:44.688Z,67.80
2018-07-03T20:24:13.053Z,68.00
2018-07-03T20:26:41.836Z,69.80
2018-07-03T20:29:10.447Z,69.40
2018-07-03T20:31:38.763Z,71.10
2018-07-03T20:34:06.984Z,72.00
2018-07-03T20:36:35.235Z,71.80
2018-07-03T20:39:05.398Z,71.70
2018-07-03T20:41:33.668Z,71.60
2018-07-03T20:44:01.938Z,72.20
2018-07-03T20:46:30.171Z,72.50
2018-07-03T20:48:58.477Z,72.80
2018-07-03T20:51:27.637Z,73.20
2018-07-03T20:53:55.931Z,73.60
2018-07-03T20:56:24.179Z,73.70
2018-07-03T20:58:52.432Z,74.80
2018-07-03T21:01:21.420Z,75.50
2018-07-03T21:03:49.773Z,76.70
2018-07-03T21:06:18.790Z,77.10
2018-07-03T21:08:47.019Z,77.90
2018-07-03T21:11:15.226Z,78.30
2018-07-03T21:13:43.492Z,78.70
2018-07-03T21:16:11.931Z,79.80
2018-07-03T21:18:40.112Z,80.60
2018-07-03T21:21:08.357Z,80.80
2018-07-03T21:23:37.068Z,81.30
2018-07-03T21:26:05.481Z,83.50
2018-07-03T21:28:34.195Z,83.60
2018-07-03T21:31:02.475Z,83.30
2018-07-03T21:33:30.797Z,84.60
2018-07-03T21:35:59.233Z,84.70
2018-07-03T21:38:27.456Z,84.70
2018-07-03T21:40:55.728Z,85.70
2018-07-03T21:43:24.487Z,86.90
2018-07-03T21:45:52.754Z,86.10
2018-07-03T21:48:21.276Z,85.10
2018-07-03T21:50:49.817Z,85.70
2018-07-03T21:53:18.064Z,86.60
2018-07-03T21:55:46.366Z,87.20
2018-07-03T21:58:14.628Z,88.60
2018-07-03T22:00:42.885Z,89.60
2018-07-03T22:03:12.230Z,90.00
2018-07-03T22:05:42.236Z,89.60
2018-07-03T22:08:10.479Z,88.10
2018-07-03T22:10:39.664Z,85.50
2018-07-03T22:13:08.496Z,83.80
2018-07-03T22:15:36.763Z,84.80
2018-07-03T22:18:05.323Z,85.00
2018-07-03T22:20:33.562Z,84.70
2018-07-03T22:23:01.811Z,84.50
2018-07-03T22:25:30.058Z,85.30
2018-07-03T22:27:58.394Z,84.70
2018-07-03T22:30:27.258Z,85.10
2018-07-03T22:32:55.912Z,87.00
2018-07-03T22:35:24.155Z,87.00
2018-07-03T22:37:52.445Z,86.80
2018-07-03T22:40:20.710Z,88.20
2018-07-03T22:42:48.921Z,87.30
2018-07-03T22:45:17.175Z,89.10
2018-07-03T22:47:45.435Z,89.60
2018-07-03T22:50:13.724Z,89.10
2018-07-03T22:52:42.897Z,88.90
2018-07-03T22:55:11.504Z,88.90
2018-07-03T23:00:08.275Z,89.50
2018-07-03T23:02:36.808Z,90.00
2018-07-03T23:05:05.107Z,90.00
2018-07-03T23:07:34.226Z,90.40
2018-07-03T23:10:02.467Z,90.90
2018-07-03T23:12:30.683Z,90.30
2018-07-03T23:14:58.942Z,90.40
2018-07-03T23:17:27.198Z,90.60
2018-07-03T23:19:55.471Z,90.60
2018-07-03T23:22:23.700Z,90.30
2018-07-03T23:24:52.073Z,90.00
2018-07-03T23:27:20.319Z,90.30
2018-07-03T23:29:48.556Z,90.50
2018-07-03T23:32:16.784Z,90.40
2018-07-03T23:34:44.991Z,90.40
2018-07-03T23:37:13.248Z,90.40
2018-07-03T23:39:41.522Z,90.70
2018-07-03T23:42:09.779Z,90.90
2018-07-03T23:44:38.054Z,91.20
2018-07-03T23:47:17.742Z,91.90
2018-07-03T23:49:57.251Z,92.70
2018-07-03T23:52:36.945Z,93.20
2018-07-03T23:55:16.603Z,93.90
2018-07-03T23:57:56.275Z,94.70
